sensor_id;sensor_type;location;lat;lon;timestamp;P1;durP1;ratioP1;P2;durP2;ratioP2
30862;SDS011;17573;55.922;37.540;2023-08-17T00:02:11;33.55;;;16.52;;
30862;SDS011;17573;55.922;37.540;2023-08-17T00:04:39;32.53;;;15.68;;
30862;SDS011;17573;55.922;37.540;2023-08-17T00:07:06;35.35;;;15.35;;
30862;SDS011;17573;55.922;37.540;2023-08-17T00:09:32;34.97;;;16.20;;
30862;SDS011;17573;55.922;37.540;2023-08-17T00:11:58;47.85;;;15.95;;
30862;SDS011;17573;55.922;37.540;2023-08-17T00:14:24;32.05;;;15.75;;
30862;SDS011;17573;55.922;37.540;2023-08-17T00:16:50;36.40;;;15.55;;
30862;SDS011;17573;55.922;37.540;2023-08-17T00:19:17;38.72;;;17.45;;
30862;SDS011;17573;55.922;37.540;2023-08-17T00:21:44;33.67;;;15.80;;
30862;SDS011;17573;55.922;37.540;2023-08-17T00:24:10;40.10;;;16.70;;
30862;SDS011;17573;55.922;37.540;2023-08-17T00:26:37;44.80;;;17.13;;
30862;SDS011;17573;55.922;37.540;2023-08-17T00:29:03;37.85;;;18.17;;
30862;SDS011;17573;55.922;37.540;2023-08-17T00:31:30;47.40;;;17.98;;
30862;SDS011;17573;55.922;37.540;2023-08-17T00:33:55;35.22;;;17.17;;
30862;SDS011;17573;55.922;37.540;2023-08-17T00:36:23;42.15;;;17.60;;
30862;SDS011;17573;55.922;37.540;2023-08-17T00:38:49;33.80;;;16.23;;
30862;SDS011;17573;55.922;37.540;2023-08-17T00:41:15;31.10;;;16.38;;
30862;SDS011;17573;55.922;37.540;2023-08-17T00:43:41;41.92;;;17.50;;
30862;SDS011;17573;55.922;37.540;2023-08-17T00:46:07;38.50;;;17.27;;
30862;SDS011;17573;55.922;37.540;2023-08-17T00:48:33;35.90;;;17.48;;
30862;SDS011;17573;55.922;37.540;2023-08-17T00:50:59;45.53;;;17.17;;
30862;SDS011;17573;55.922;37.540;2023-08-17T00:53:26;34.53;;;17.67;;
30862;SDS011;17573;55.922;37.540;2023-08-17T00:55:53;35.97;;;17.40;;
30862;SDS011;17573;55.922;37.540;2023-08-17T00:58:20;45.00;;;18.77;;
30862;SDS011;17573;55.922;37.540;2023-08-17T01:00:46;44.03;;;18.63;;
30862;SDS011;17573;55.922;37.540;2023-08-17T01:03:12;36.08;;;18.08;;
30862;SDS011;17573;55.922;37.540;2023-08-17T01:05:38;38.13;;;17.33;;
30862;SDS011;17573;55.922;37.540;2023-08-17T01:08:04;37.65;;;17.67;;
30862;SDS011;17573;55.922;37.540;2023-08-17T01:13:55;31.00;;;17.45;;
30862;SDS011;17573;55.922;37.540;2023-08-17T01:16:26;38.42;;;16.70;;
30862;SDS011;17573;55.922;37.540;2023-08-17T01:18:57;33.83;;;16.95;;
30862;SDS011;17573;55.922;37.540;2023-08-17T01:21:24;39.50;;;18.63;;
30862;SDS011;17573;55.922;37.540;2023-08-17T01:23:59;45.25;;;18.23;;
30862;SDS011;17573;55.922;37.540;2023-08-17T01:26:28;38.17;;;18.95;;
30862;SDS011;17573;55.922;37.540;2023-08-17T01:28:54;41.47;;;17.65;;
30862;SDS011;17573;55.922;37.540;2023-08-17T01:31:23;43.75;;;16.90;;
30862;SDS011;17573;55.922;37.540;2023-08-17T01:33:54;34.70;;;17.50;;
30862;SDS011;17573;55.922;37.540;2023-08-17T01:36:24;33.60;;;16.48;;
30862;SDS011;17573;55.922;37.540;2023-08-17T01:38:51;55.55;;;18.60;;
30862;SDS011;17573;55.922;37.540;2023-08-17T01:41:18;34.20;;;16.30;;
30862;SDS011;17573;55.922;37.540;2023-08-17T01:43:46;46.05;;;18.63;;
30862;SDS011;17573;55.922;37.540;2023-08-17T01:46:13;29.02;;;17.27;;
30862;SDS011;17573;55.922;37.540;2023-08-17T01:48:42;35.83;;;17.75;;
30862;SDS011;17573;55.922;37.540;2023-08-17T01:51:10;39.63;;;16.05;;
30862;SDS011;17573;55.922;37.540;2023-08-17T01:53:37;41.58;;;17.15;;
30862;SDS011;17573;55.922;37.540;2023-08-17T01:56:04;34.33;;;16.33;;
30862;SDS011;17573;55.922;37.540;2023-08-17T01:58:30;33.10;;;17.13;;
30862;SDS011;17573;55.922;37.540;2023-08-17T02:00:55;29.40;;;16.67;;
30862;SDS011;17573;55.922;37.540;2023-08-17T02:03:21;34.97;;;16.25;;
30862;SDS011;17573;55.922;37.540;2023-08-17T02:05:47;31.45;;;15.07;;
30862;SDS011;17573;55.922;37.540;2023-08-17T02:08:15;28.75;;;17.05;;
30862;SDS011;17573;55.922;37.540;2023-08-17T02:10:40;29.45;;;15.85;;
30862;SDS011;17573;55.922;37.540;2023-08-17T02:13:06;33.45;;;16.17;;
30862;SDS011;17573;55.922;37.540;2023-08-17T02:15:32;24.50;;;13.93;;
30862;SDS011;17573;55.922;37.540;2023-08-17T02:18:00;29.30;;;15.38;;
30862;SDS011;17573;55.922;37.540;2023-08-17T02:20:28;29.90;;;15.82;;
30862;SDS011;17573;55.922;37.540;2023-08-17T02:22:53;44.00;;;16.17;;
30862;SDS011;17573;55.922;37.540;2023-08-17T02:25:19;26.00;;;16.40;;
30862;SDS011;17573;55.922;37.540;2023-08-17T02:27:45;51.25;;;16.40;;
30862;SDS011;17573;55.922;37.540;2023-08-17T02:30:11;32.50;;;16.85;;
30862;SDS011;17573;55.922;37.540;2023-08-17T02:32:38;37.83;;;16.25;;
30862;SDS011;17573;55.922;37.540;2023-08-17T02:35:03;38.92;;;16.98;;
30862;SDS011;17573;55.922;37.540;2023-08-17T02:37:29;34.00;;;16.63;;
30862;SDS011;17573;55.922;37.540;2023-08-17T02:39:55;36.08;;;16.85;;
30862;SDS011;17573;55.922;37.540;2023-08-17T02:42:22;30.45;;;16.00;;
30862;SDS011;17573;55.922;37.540;2023-08-17T02:44:48;26.08;;;15.32;;
30862;SDS011;17573;55.922;37.540;2023-08-17T02:47:13;36.47;;;15.15;;
30862;SDS011;17573;55.922;37.540;2023-08-17T02:49:39;32.88;;;15.27;;
30862;SDS011;17573;55.922;37.540;2023-08-17T02:52:05;32.88;;;15.63;;
30862;SDS011;17573;55.922;37.540;2023-08-17T02:54:31;31.33;;;14.80;;
30862;SDS011;17573;55.922;37.540;2023-08-17T02:56:57;31.33;;;16.80;;
30862;SDS011;17573;55.922;37.540;2023-08-17T02:59:23;30.77;;;15.45;;
30862;SDS011;17573;55.922;37.540;2023-08-17T03:01:49;36.33;;;15.85;;
30862;SDS011;17573;55.922;37.540;2023-08-17T03:04:14;40.03;;;16.45;;
30862;SDS011;17573;55.922;37.540;2023-08-17T03:06:40;33.88;;;17.15;;
30862;SDS011;17573;55.922;37.540;2023-08-17T03:09:06;27.73;;;16.17;;
30862;SDS011;17573;55.922;37.540;2023-08-17T03:11:34;31.02;;;14.80;;
30862;SDS011;17573;55.922;37.540;2023-08-17T03:13:59;32.83;;;15.27;;
30862;SDS011;17573;55.922;37.540;2023-08-17T03:16:26;30.88;;;15.00;;
30862;SDS011;17573;55.922;37.540;2023-08-17T03:18:53;31.83;;;14.43;;
30862;SDS011;17573;55.922;37.540;2023-08-17T03:21:19;34.17;;;14.43;;
30862;SDS011;17573;55.922;37.540;2023-08-17T03:23:46;38.13;;;15.45;;
30862;SDS011;17573;55.922;37.540;2023-08-17T03:26:12;28.08;;;14.55;;
30862;SDS011;17573;55.922;37.540;2023-08-17T03:28:38;32.80;;;15.13;;
30862;SDS011;17573;55.922;37.540;2023-08-17T03:31:04;29.48;;;15.10;;
30862;SDS011;17573;55.922;37.540;2023-08-17T03:33:32;24.50;;;14.68;;
30862;SDS011;17573;55.922;37.540;2023-08-17T03:35:58;38.13;;;15.10;;
30862;SDS011;17573;55.922;37.540;2023-08-17T03:38:24;29.13;;;12.93;;
30862;SDS011;17573;55.922;37.540;2023-08-17T03:40:50;27.65;;;14.25;;
30862;SDS011;17573;55.922;37.540;2023-08-17T03:43:16;49.25;;;14.13;;
30862;SDS011;17573;55.922;37.540;2023-08-17T03:45:42;30.13;;;14.63;;
30862;SDS011;17573;55.922;37.540;2023-08-17T03:48:08;28.48;;;13.40;;
30862;SDS011;17573;55.922;37.540;2023-08-17T03:50:34;37.95;;;14.90;;
30862;SDS011;17573;55.922;37.540;2023-08-17T03:53:00;36.00;;;13.73;;
30862;SDS011;17573;55.922;37.540;2023-08-17T03:55:26;28.02;;;13.70;;
30862;SDS011;17573;55.922;37.540;2023-08-17T03:57:52;27.33;;;12.65;;
30862;SDS011;17573;55.922;37.540;2023-08-17T04:00:18;27.80;;;12.38;;
30862;SDS011;17573;55.922;37.540;2023-08-17T04:02:44;37.45;;;13.70;;
30862;SDS011;17573;55.922;37.540;2023-08-17T04:05:14;31.02;;;12.85;;
30862;SDS011;17573;55.922;37.540;2023-08-17T04:07:41;38.50;;;13.73;;
30862;SDS011;17573;55.922;37.540;2023-08-17T04:10:07;27.48;;;12.90;;
30862;SDS011;17573;55.922;37.540;2023-08-17T04:12:33;34.65;;;13.68;;
30862;SDS011;17573;55.922;37.540;2023-08-17T04:15:00;31.77;;;12.18;;
30862;SDS011;17573;55.922;37.540;2023-08-17T04:17:26;35.28;;;11.95;;
30862;SDS011;17573;55.922;37.540;2023-08-17T04:19:52;28.88;;;12.63;;
30862;SDS011;17573;55.922;37.540;2023-08-17T04:22:18;34.42;;;12.15;;
30862;SDS011;17573;55.922;37.540;2023-08-17T04:24:43;33.08;;;11.77;;
30862;SDS011;17573;55.922;37.540;2023-08-17T04:27:09;39.13;;;12.68;;
30862;SDS011;17573;55.922;37.540;2023-08-17T04:29:37;29.98;;;11.70;;
30862;SDS011;17573;55.922;37.540;2023-08-17T04:32:03;38.08;;;12.38;;
30862;SDS011;17573;55.922;37.540;2023-08-17T04:34:29;20.73;;;11.05;;
30862;SDS011;17573;55.922;37.540;2023-08-17T04:36:55;21.00;;;9.25;;
30862;SDS011;17573;55.922;37.540;2023-08-17T04:39:21;28.27;;;10.60;;
30862;SDS011;17573;55.922;37.540;2023-08-17T04:41:47;20.95;;;9.57;;
30862;SDS011;17573;55.922;37.540;2023-08-17T04:44:23;23.48;;;9.57;;
30862;SDS011;17573;55.922;37.540;2023-08-17T04:46:49;18.55;;;9.18;;
30862;SDS011;17573;55.922;37.540;2023-08-17T04:49:15;20.70;;;9.77;;
30862;SDS011;17573;55.922;37.540;2023-08-17T04:51:40;18.08;;;8.80;;
30862;SDS011;17573;55.922;37.540;2023-08-17T04:54:06;27.10;;;9.15;;
30862;SDS011;17573;55.922;37.540;2023-08-17T04:56:32;22.10;;;8.98;;
30862;SDS011;17573;55.922;37.540;2023-08-17T04:58:59;18.40;;;7.03;;
30862;SDS011;17573;55.922;37.540;2023-08-17T05:01:25;12.23;;;7.45;;
30862;SDS011;17573;55.922;37.540;2023-08-17T05:03:51;25.65;;;8.15;;
30862;SDS011;17573;55.922;37.540;2023-08-17T05:06:17;13.82;;;7.90;;
30862;SDS011;17573;55.922;37.540;2023-08-17T05:08:43;22.73;;;7.80;;
30862;SDS011;17573;55.922;37.540;2023-08-17T05:11:09;15.48;;;7.25;;
30862;SDS011;17573;55.922;37.540;2023-08-17T05:13:35;28.55;;;7.20;;
30862;SDS011;17573;55.922;37.540;2023-08-17T05:16:03;21.30;;;8.57;;
30862;SDS011;17573;55.922;37.540;2023-08-17T05:18:29;16.02;;;5.97;;
30862;SDS011;17573;55.922;37.540;2023-08-17T05:20:56;15.73;;;5.63;;
30862;SDS011;17573;55.922;37.540;2023-08-17T05:23:22;14.02;;;6.75;;
30862;SDS011;17573;55.922;37.540;2023-08-17T05:25:48;8.07;;;4.97;;
30862;SDS011;17573;55.922;37.540;2023-08-17T05:28:14;7.72;;;5.00;;
30862;SDS011;17573;55.922;37.540;2023-08-17T05:30:40;10.07;;;5.18;;
30862;SDS011;17573;55.922;37.540;2023-08-17T05:33:06;18.73;;;6.07;;
30862;SDS011;17573;55.922;37.540;2023-08-17T05:35:32;16.58;;;5.55;;
30862;SDS011;17573;55.922;37.540;2023-08-17T05:37:58;17.60;;;5.38;;
30862;SDS011;17573;55.922;37.540;2023-08-17T05:40:24;13.52;;;5.32;;
30862;SDS011;17573;55.922;37.540;2023-08-17T05:42:49;11.73;;;5.10;;
30862;SDS011;17573;55.922;37.540;2023-08-17T05:45:16;10.95;;;4.63;;
30862;SDS011;17573;55.922;37.540;2023-08-17T05:47:42;9.23;;;4.50;;
30862;SDS011;17573;55.922;37.540;2023-08-17T05:50:08;9.35;;;4.25;;
30862;SDS011;17573;55.922;37.540;2023-08-17T05:52:34;15.77;;;3.88;;
30862;SDS011;17573;55.922;37.540;2023-08-17T05:55:00;8.73;;;3.55;;
30862;SDS011;17573;55.922;37.540;2023-08-17T05:57:26;14.15;;;3.50;;
30862;SDS011;17573;55.922;37.540;2023-08-17T05:59:52;14.23;;;3.65;;
30862;SDS011;17573;55.922;37.540;2023-08-17T06:02:18;6.40;;;3.28;;
30862;SDS011;17573;55.922;37.540;2023-08-17T06:04:44;5.85;;;3.22;;
30862;SDS011;17573;55.922;37.540;2023-08-17T06:07:10;6.75;;;3.35;;
30862;SDS011;17573;55.922;37.540;2023-08-17T06:09:35;8.35;;;3.75;;
30862;SDS011;17573;55.922;37.540;2023-08-17T06:12:01;12.68;;;3.45;;
30862;SDS011;17573;55.922;37.540;2023-08-17T06:14:27;7.05;;;3.92;;
30862;SDS011;17573;55.922;37.540;2023-08-17T06:16:53;10.02;;;3.67;;
30862;SDS011;17573;55.922;37.540;2023-08-17T06:19:19;12.10;;;4.25;;
30862;SDS011;17573;55.922;37.540;2023-08-17T06:21:44;15.75;;;4.35;;
30862;SDS011;17573;55.922;37.540;2023-08-17T06:24:10;11.25;;;4.22;;
30862;SDS011;17573;55.922;37.540;2023-08-17T06:26:36;17.23;;;3.70;;
30862;SDS011;17573;55.922;37.540;2023-08-17T06:29:01;12.57;;;3.60;;
30862;SDS011;17573;55.922;37.540;2023-08-17T06:31:28;7.35;;;2.58;;
30862;SDS011;17573;55.922;37.540;2023-08-17T06:33:54;5.80;;;2.33;;
30862;SDS011;17573;55.922;37.540;2023-08-17T06:36:20;6.38;;;2.65;;
30862;SDS011;17573;55.922;37.540;2023-08-17T06:38:46;13.25;;;2.78;;
30862;SDS011;17573;55.922;37.540;2023-08-17T06:41:11;6.95;;;2.20;;
30862;SDS011;17573;55.922;37.540;2023-08-17T06:43:37;13.82;;;5.97;;
30862;SDS011;17573;55.922;37.540;2023-08-17T06:46:03;12.35;;;2.50;;
30862;SDS011;17573;55.922;37.540;2023-08-17T06:48:29;7.55;;;2.92;;
30862;SDS011;17573;55.922;37.540;2023-08-17T06:50:54;18.08;;;3.20;;
30862;SDS011;17573;55.922;37.540;2023-08-17T06:53:20;7.45;;;2.30;;
30862;SDS011;17573;55.922;37.540;2023-08-17T06:55:46;10.25;;;2.90;;
30862;SDS011;17573;55.922;37.540;2023-08-17T06:58:12;15.93;;;2.88;;
30862;SDS011;17573;55.922;37.540;2023-08-17T07:00:38;5.10;;;2.33;;
30862;SDS011;17573;55.922;37.540;2023-08-17T07:03:06;26.40;;;2.97;;
30862;SDS011;17573;55.922;37.540;2023-08-17T07:05:33;5.88;;;2.30;;
30862;SDS011;17573;55.922;37.540;2023-08-17T07:08:00;7.18;;;2.10;;
30862;SDS011;17573;55.922;37.540;2023-08-17T07:10:26;6.88;;;2.13;;
30862;SDS011;17573;55.922;37.540;2023-08-17T07:12:52;5.80;;;1.83;;
30862;SDS011;17573;55.922;37.540;2023-08-17T07:15:18;7.55;;;1.85;;
30862;SDS011;17573;55.922;37.540;2023-08-17T07:17:44;5.60;;;1.90;;
30862;SDS011;17573;55.922;37.540;2023-08-17T07:20:10;8.73;;;2.17;;
30862;SDS011;17573;55.922;37.540;2023-08-17T07:22:39;4.97;;;2.13;;
30862;SDS011;17573;55.922;37.540;2023-08-17T07:25:05;5.65;;;2.28;;
30862;SDS011;17573;55.922;37.540;2023-08-17T07:27:31;13.00;;;2.28;;
30862;SDS011;17573;55.922;37.540;2023-08-17T07:29:56;3.40;;;1.55;;
30862;SDS011;17573;55.922;37.540;2023-08-17T07:32:22;11.65;;;2.35;;
30862;SDS011;17573;55.922;37.540;2023-08-17T07:34:50;9.32;;;2.13;;
30862;SDS011;17573;55.922;37.540;2023-08-17T07:37:16;6.95;;;2.80;;
30862;SDS011;17573;55.922;37.540;2023-08-17T07:39:41;6.68;;;2.25;;
30862;SDS011;17573;55.922;37.540;2023-08-17T07:42:07;13.32;;;3.40;;
30862;SDS011;17573;55.922;37.540;2023-08-17T07:44:33;7.32;;;2.67;;
30862;SDS011;17573;55.922;37.540;2023-08-17T07:47:00;4.35;;;2.10;;
30862;SDS011;17573;55.922;37.540;2023-08-17T07:49:27;7.25;;;2.10;;
30862;SDS011;17573;55.922;37.540;2023-08-17T07:51:54;4.75;;;2.00;;
30862;SDS011;17573;55.922;37.540;2023-08-17T07:54:20;9.40;;;2.15;;
30862;SDS011;17573;55.922;37.540;2023-08-17T07:56:45;11.55;;;2.80;;
30862;SDS011;17573;55.922;37.540;2023-08-17T07:59:11;11.23;;;2.65;;
30862;SDS011;17573;55.922;37.540;2023-08-17T08:01:37;9.88;;;2.25;;
30862;SDS011;17573;55.922;37.540;2023-08-17T08:04:04;11.57;;;2.45;;
30862;SDS011;17573;55.922;37.540;2023-08-17T08:06:30;7.93;;;2.40;;
30862;SDS011;17573;55.922;37.540;2023-08-17T08:08:56;8.65;;;2.28;;
30862;SDS011;17573;55.922;37.540;2023-08-17T08:11:22;4.25;;;2.00;;
30862;SDS011;17573;55.922;37.540;2023-08-17T08:13:48;12.57;;;2.55;;
30862;SDS011;17573;55.922;37.540;2023-08-17T08:16:13;3.47;;;1.92;;
30862;SDS011;17573;55.922;37.540;2023-08-17T08:18:39;5.60;;;1.73;;
30862;SDS011;17573;55.922;37.540;2023-08-17T08:21:05;5.03;;;1.75;;
30862;SDS011;17573;55.922;37.540;2023-08-17T08:23:31;4.25;;;2.00;;
30862;SDS011;17573;55.922;37.540;2023-08-17T08:25:56;9.57;;;2.30;;
30862;SDS011;17573;55.922;37.540;2023-08-17T08:28:23;7.32;;;2.28;;
30862;SDS011;17573;55.922;37.540;2023-08-17T08:30:53;17.75;;;1.80;;
30862;SDS011;17573;55.922;37.540;2023-08-17T08:33:19;6.65;;;2.08;;
30862;SDS011;17573;55.922;37.540;2023-08-17T08:35:45;7.88;;;2.15;;
30862;SDS011;17573;55.922;37.540;2023-08-17T08:38:11;4.80;;;2.20;;
30862;SDS011;17573;55.922;37.540;2023-08-17T08:40:37;4.93;;;2.17;;
30862;SDS011;17573;55.922;37.540;2023-08-17T08:43:03;4.78;;;2.03;;
30862;SDS011;17573;55.922;37.540;2023-08-17T08:45:29;5.05;;;1.75;;
30862;SDS011;17573;55.922;37.540;2023-08-17T08:47:56;6.90;;;1.30;;
30862;SDS011;17573;55.922;37.540;2023-08-17T08:50:23;4.28;;;2.30;;
30862;SDS011;17573;55.922;37.540;2023-08-17T08:52:58;3.50;;;1.88;;
30862;SDS011;17573;55.922;37.540;2023-08-17T08:55:29;5.03;;;1.80;;
30862;SDS011;17573;55.922;37.540;2023-08-17T09:00:27;4.40;;;1.50;;
30862;SDS011;17573;55.922;37.540;2023-08-17T09:02:53;9.63;;;2.00;;
30862;SDS011;17573;55.922;37.540;2023-08-17T09:05:19;7.10;;;2.13;;
30862;SDS011;17573;55.922;37.540;2023-08-17T09:07:48;7.63;;;1.55;;
30862;SDS011;17573;55.922;37.540;2023-08-17T09:10:14;2.28;;;1.60;;
30862;SDS011;17573;55.922;37.540;2023-08-17T09:12:43;7.95;;;1.70;;
30862;SDS011;17573;55.922;37.540;2023-08-17T09:15:10;10.10;;;2.10;;
30862;SDS011;17573;55.922;37.540;2023-08-17T09:17:36;6.95;;;2.10;;
30862;SDS011;17573;55.922;37.540;2023-08-17T09:20:02;6.30;;;2.17;;
30862;SDS011;17573;55.922;37.540;2023-08-17T09:22:36;4.05;;;2.08;;
30862;SDS011;17573;55.922;37.540;2023-08-17T09:25:05;7.15;;;2.75;;
30862;SDS011;17573;55.922;37.540;2023-08-17T09:27:32;7.60;;;2.65;;
30862;SDS011;17573;55.922;37.540;2023-08-17T09:30:09;4.53;;;2.35;;
30862;SDS011;17573;55.922;37.540;2023-08-17T09:32:35;7.28;;;2.45;;
30862;SDS011;17573;55.922;37.540;2023-08-17T09:35:04;3.45;;;2.05;;
30862;SDS011;17573;55.922;37.540;2023-08-17T09:37:32;3.90;;;1.80;;
30862;SDS011;17573;55.922;37.540;2023-08-17T09:39:58;4.95;;;2.50;;
30862;SDS011;17573;55.922;37.540;2023-08-17T09:42:24;5.93;;;2.30;;
30862;SDS011;17573;55.922;37.540;2023-08-17T09:44:51;3.92;;;1.70;;
30862;SDS011;17573;55.922;37.540;2023-08-17T09:47:18;6.45;;;2.05;;
30862;SDS011;17573;55.922;37.540;2023-08-17T09:49:51;9.35;;;2.22;;
30862;SDS011;17573;55.922;37.540;2023-08-17T09:52:18;5.90;;;2.38;;
30862;SDS011;17573;55.922;37.540;2023-08-17T09:54:47;3.55;;;1.80;;
30862;SDS011;17573;55.922;37.540;2023-08-17T09:57:14;6.75;;;1.98;;
30862;SDS011;17573;55.922;37.540;2023-08-17T09:59:40;4.47;;;2.15;;
30862;SDS011;17573;55.922;37.540;2023-08-17T10:02:19;6.70;;;2.05;;
30862;SDS011;17573;55.922;37.540;2023-08-17T10:04:52;3.75;;;1.75;;
30862;SDS011;17573;55.922;37.540;2023-08-17T10:07:20;10.75;;;1.98;;
30862;SDS011;17573;55.922;37.540;2023-08-17T10:09:56;3.72;;;2.13;;
30862;SDS011;17573;55.922;37.540;2023-08-17T10:12:27;4.85;;;2.10;;
30862;SDS011;17573;55.922;37.540;2023-08-17T10:15:03;5.18;;;2.20;;
30862;SDS011;17573;55.922;37.540;2023-08-17T10:20:20;6.57;;;2.30;;
30862;SDS011;17573;55.922;37.540;2023-08-17T10:22:51;4.40;;;1.85;;
30862;SDS011;17573;55.922;37.540;2023-08-17T10:25:25;5.25;;;2.10;;
30862;SDS011;17573;55.922;37.540;2023-08-17T10:27:52;7.97;;;2.13;;
30862;SDS011;17573;55.922;37.540;2023-08-17T10:30:19;4.97;;;1.90;;
30862;SDS011;17573;55.922;37.540;2023-08-17T10:32:45;5.07;;;1.90;;
30862;SDS011;17573;55.922;37.540;2023-08-17T10:35:13;2.50;;;1.63;;
30862;SDS011;17573;55.922;37.540;2023-08-17T10:37:39;4.80;;;2.30;;
30862;SDS011;17573;55.922;37.540;2023-08-17T10:40:05;7.75;;;2.08;;
30862;SDS011;17573;55.922;37.540;2023-08-17T10:42:33;7.55;;;2.30;;
30862;SDS011;17573;55.922;37.540;2023-08-17T10:45:47;7.82;;;2.03;;
30862;SDS011;17573;55.922;37.540;2023-08-17T10:47:59;4.65;;;1.92;;
30862;SDS011;17573;55.922;37.540;2023-08-17T10:50:35;11.95;;;1.92;;
30862;SDS011;17573;55.922;37.540;2023-08-17T10:53:08;7.57;;;2.13;;
30862;SDS011;17573;55.922;37.540;2023-08-17T10:55:56;3.47;;;2.05;;
30862;SDS011;17573;55.922;37.540;2023-08-17T10:58:22;8.60;;;1.83;;
30862;SDS011;17573;55.922;37.540;2023-08-17T11:00:48;5.50;;;2.17;;
30862;SDS011;17573;55.922;37.540;2023-08-17T11:03:20;4.63;;;2.47;;
30862;SDS011;17573;55.922;37.540;2023-08-17T11:05:48;6.78;;;2.08;;
30862;SDS011;17573;55.922;37.540;2023-08-17T11:11:06;4.53;;;2.15;;
30862;SDS011;17573;55.922;37.540;2023-08-17T11:13:35;6.68;;;2.25;;
30862;SDS011;17573;55.922;37.540;2023-08-17T11:16:04;4.38;;;1.90;;
30862;SDS011;17573;55.922;37.540;2023-08-17T11:18:30;5.22;;;2.22;;
30862;SDS011;17573;55.922;37.540;2023-08-17T11:20:57;3.90;;;1.70;;
30862;SDS011;17573;55.922;37.540;2023-08-17T11:23:23;4.35;;;1.60;;
30862;SDS011;17573;55.922;37.540;2023-08-17T11:25:51;11.55;;;1.98;;
30862;SDS011;17573;55.922;37.540;2023-08-17T11:28:17;5.53;;;2.40;;
30862;SDS011;17573;55.922;37.540;2023-08-17T11:30:44;7.15;;;2.00;;
30862;SDS011;17573;55.922;37.540;2023-08-17T11:33:10;3.78;;;1.80;;
30862;SDS011;17573;55.922;37.540;2023-08-17T11:35:36;7.53;;;2.60;;
30862;SDS011;17573;55.922;37.540;2023-08-17T11:38:03;3.65;;;1.90;;
30862;SDS011;17573;55.922;37.540;2023-08-17T11:40:31;8.15;;;1.77;;
30862;SDS011;17573;55.922;37.540;2023-08-17T11:42:57;5.97;;;2.28;;
30862;SDS011;17573;55.922;37.540;2023-08-17T11:45:23;6.10;;;1.75;;
30862;SDS011;17573;55.922;37.540;2023-08-17T11:47:49;12.50;;;1.85;;
30862;SDS011;17573;55.922;37.540;2023-08-17T11:50:15;9.45;;;2.22;;
30862;SDS011;17573;55.922;37.540;2023-08-17T11:52:41;5.30;;;1.95;;
30862;SDS011;17573;55.922;37.540;2023-08-17T11:55:07;5.43;;;2.67;;
30862;SDS011;17573;55.922;37.540;2023-08-17T11:57:37;14.32;;;2.63;;
30862;SDS011;17573;55.922;37.540;2023-08-17T12:00:04;5.50;;;2.28;;
30862;SDS011;17573;55.922;37.540;2023-08-17T12:02:38;8.55;;;2.05;;
30862;SDS011;17573;55.922;37.540;2023-08-17T12:05:08;4.88;;;1.70;;
30862;SDS011;17573;55.922;37.540;2023-08-17T12:07:35;4.10;;;1.83;;
30862;SDS011;17573;55.922;37.540;2023-08-17T12:10:02;3.90;;;2.22;;
30862;SDS011;17573;55.922;37.540;2023-08-17T12:12:35;8.90;;;1.80;;
30862;SDS011;17573;55.922;37.540;2023-08-17T12:15:03;9.43;;;2.20;;
30862;SDS011;17573;55.922;37.540;2023-08-17T12:17:31;4.47;;;2.00;;
30862;SDS011;17573;55.922;37.540;2023-08-17T12:19:58;3.65;;;1.63;;
30862;SDS011;17573;55.922;37.540;2023-08-17T12:22:24;3.88;;;1.73;;
30862;SDS011;17573;55.922;37.540;2023-08-17T12:24:51;5.95;;;1.90;;
30862;SDS011;17573;55.922;37.540;2023-08-17T12:27:18;10.15;;;2.17;;
30862;SDS011;17573;55.922;37.540;2023-08-17T12:29:47;5.03;;;2.03;;
30862;SDS011;17573;55.922;37.540;2023-08-17T12:32:17;5.60;;;1.73;;
30862;SDS011;17573;55.922;37.540;2023-08-17T12:34:44;3.65;;;1.83;;
30862;SDS011;17573;55.922;37.540;2023-08-17T12:37:11;8.88;;;1.65;;
30862;SDS011;17573;55.922;37.540;2023-08-17T12:39:38;5.50;;;1.88;;
30862;SDS011;17573;55.922;37.540;2023-08-17T12:42:04;10.05;;;2.15;;
30862;SDS011;17573;55.922;37.540;2023-08-17T12:44:31;4.60;;;2.08;;
30862;SDS011;17573;55.922;37.540;2023-08-17T12:46:57;11.18;;;2.42;;
30862;SDS011;17573;55.922;37.540;2023-08-17T12:49:23;8.82;;;1.88;;
30862;SDS011;17573;55.922;37.540;2023-08-17T12:51:49;4.75;;;2.28;;
30862;SDS011;17573;55.922;37.540;2023-08-17T12:54:15;4.43;;;1.92;;
30862;SDS011;17573;55.922;37.540;2023-08-17T12:56:41;7.97;;;3.15;;
30862;SDS011;17573;55.922;37.540;2023-08-17T12:59:06;5.38;;;2.20;;
30862;SDS011;17573;55.922;37.540;2023-08-17T13:01:33;3.97;;;2.13;;
30862;SDS011;17573;55.922;37.540;2023-08-17T13:03:58;9.18;;;2.33;;
30862;SDS011;17573;55.922;37.540;2023-08-17T13:06:24;6.88;;;2.05;;
30862;SDS011;17573;55.922;37.540;2023-08-17T13:08:50;5.75;;;2.00;;
30862;SDS011;17573;55.922;37.540;2023-08-17T13:11:15;7.15;;;2.50;;
30862;SDS011;17573;55.922;37.540;2023-08-17T13:13:41;10.60;;;1.92;;
30862;SDS011;17573;55.922;37.540;2023-08-17T13:16:07;7.97;;;2.10;;
30862;SDS011;17573;55.922;37.540;2023-08-17T13:18:33;9.68;;;2.42;;
30862;SDS011;17573;55.922;37.540;2023-08-17T13:20:59;8.20;;;2.35;;
30862;SDS011;17573;55.922;37.540;2023-08-17T13:23:25;9.32;;;2.40;;
30862;SDS011;17573;55.922;37.540;2023-08-17T13:25:51;7.00;;;2.42;;
30862;SDS011;17573;55.922;37.540;2023-08-17T13:28:16;9.15;;;2.30;;
30862;SDS011;17573;55.922;37.540;2023-08-17T13:30:42;7.35;;;2.97;;
30862;SDS011;17573;55.922;37.540;2023-08-17T13:33:08;14.18;;;2.60;;
30862;SDS011;17573;55.922;37.540;2023-08-17T13:35:34;11.25;;;2.35;;
30862;SDS011;17573;55.922;37.540;2023-08-17T13:38:00;7.13;;;2.58;;
30862;SDS011;17573;55.922;37.540;2023-08-17T13:40:30;5.55;;;2.33;;
30862;SDS011;17573;55.922;37.540;2023-08-17T13:42:56;12.45;;;2.50;;
30862;SDS011;17573;55.922;37.540;2023-08-17T13:45:24;8.35;;;2.30;;
30862;SDS011;17573;55.922;37.540;2023-08-17T13:47:49;3.47;;;2.10;;
30862;SDS011;17573;55.922;37.540;2023-08-17T13:50:15;9.05;;;2.83;;
30862;SDS011;17573;55.922;37.540;2023-08-17T13:52:44;12.85;;;3.22;;
30862;SDS011;17573;55.922;37.540;2023-08-17T13:55:10;8.65;;;3.25;;
30862;SDS011;17573;55.922;37.540;2023-08-17T13:57:36;8.10;;;2.97;;
30862;SDS011;17573;55.922;37.540;2023-08-17T14:00:02;5.22;;;2.33;;
30862;SDS011;17573;55.922;37.540;2023-08-17T14:02:31;18.58;;;2.90;;
30862;SDS011;17573;55.922;37.540;2023-08-17T14:04:57;11.57;;;2.35;;
30862;SDS011;17573;55.922;37.540;2023-08-17T14:07:23;10.45;;;2.53;;
30862;SDS011;17573;55.922;37.540;2023-08-17T14:09:49;16.90;;;2.92;;
30862;SDS011;17573;55.922;37.540;2023-08-17T14:12:14;10.00;;;2.65;;
30862;SDS011;17573;55.922;37.540;2023-08-17T14:14:40;13.23;;;2.60;;
30862;SDS011;17573;55.922;37.540;2023-08-17T14:17:06;7.22;;;3.10;;
30862;SDS011;17573;55.922;37.540;2023-08-17T14:19:32;12.40;;;3.35;;
30862;SDS011;17573;55.922;37.540;2023-08-17T14:21:58;6.88;;;3.10;;
30862;SDS011;17573;55.922;37.540;2023-08-17T14:24:27;7.03;;;2.58;;
30862;SDS011;17573;55.922;37.540;2023-08-17T14:26:53;9.75;;;2.75;;
30862;SDS011;17573;55.922;37.540;2023-08-17T14:29:19;12.95;;;3.15;;
30862;SDS011;17573;55.922;37.540;2023-08-17T14:31:45;7.88;;;2.50;;
30862;SDS011;17573;55.922;37.540;2023-08-17T14:34:12;7.07;;;2.80;;